This is the latest recevied weather packets stored in our database for station/object PP5MEL-5. If no packets are shown the sender has not sent any weather packets the latest 1 day(s).
| Time | Temp. | Humidity | Pressure | Rain* | Wind** | Luminosity | Snow |
|---|---|---|---|---|---|---|---|
| 1778115236 | 27.78° C | 54% | 1016.8 hPa | - | - | - | - |
| 1778114926 | 27.78° C | 54% | 1016.9 hPa | - | - | - | - |
| 1778114305 | 27.78° C | 54% | 1016.9 hPa | - | - | - | - |
| 1778113995 | 27.78° C | 54% | 1017 hPa | - | - | - | - |
| 1778113684 | 27.78° C | 54% | 1017 hPa | - | - | - | - |
| 1778113374 | 27.78° C | 54% | 1017.1 hPa | - | - | - | - |
| 1778111512 | 28.33° C | 55% | 1017 hPa | - | - | - | - |
| 1778109960 | 28.33° C | 55% | 1017.2 hPa | - | - | - | - |
| 1778109650 | 28.33° C | 55% | 1017.2 hPa | - | - | - | - |
| 1778107787 | 28.33° C | 55% | 1017.2 hPa | - | - | - | - |
| 1778107476 | 28.33° C | 55% | 1017.2 hPa | - | - | - | - |
| 1778104062 | 28.89° C | 54% | 1017 hPa | - | - | - | - |
| 1778102200 | 29.44° C | 54% | 1016.8 hPa | - | - | - | - |
| 1778101889 | 29.44° C | 54% | 1016.8 hPa | - | - | - | - |
| 1778101268 | 29.44° C | 54% | 1016.7 hPa | - | - | - | - |
| 1778100646 | 30° C | 54% | 1016.7 hPa | - | - | - | - |
| 1778099094 | 30° C | 54% | 1016.4 hPa | - | - | - | - |
| 1778098473 | 30° C | 54% | 1016.3 hPa | - | - | - | - |
| 1778097852 | 30.56° C | 53% | 1016.3 hPa | - | - | - | - |
| 1778094436 | 30.56° C | 49% | 1016.3 hPa | - | - | - | - |
| 1778093815 | 30° C | 48% | 1016.4 hPa | - | - | - | - |
| 1778092883 | 30° C | 47% | 1016.4 hPa | - | - | - | - |
| 1778092572 | 30° C | 47% | 1016.5 hPa | - | - | - | - |
| 1778091331 | 30° C | 47% | 1016.5 hPa | - | - | - | - |
| 1778090090 | 29.44° C | 48% | 1016.9 hPa | - | - | - | - |
* Rain since midnight (hover to see other rain measurements)
** Current wind speed in m/s (hover to see current wind gust speed)